Time,TemperatureF,DewpointF,PressureIn,WindDirection,WindDirectionDegrees,WindSpeedMPH,WindSpeedGustMPH,Humidity,HourlyPrecipIn,Conditions,Clouds,dailyrainin,SoftwareType,DateUTC
2013-08-24 00:01:00,62.5,49.7,29.78,NNE,24,0.6,2.3,63,0.00,RA,SCT,0.00,WeatherDisplay:10.37,2013-08-24 04:01:00,
2013-08-24 00:06:00,62.2,49.4,29.78,NE,35,1.2,3.5,63,0.00,RA,SCT,0.00,WeatherDisplay:10.37,2013-08-24 04:06:00,
2013-08-24 00:11:00,62.1,49.8,29.78,NE,38,0.6,2.3,64,0.00,CLR,SCT,0.00,WeatherDisplay:10.37,2013-08-24 04:11:00,
2013-08-24 00:16:00,62.0,48.8,29.79,North,355,1.4,3.5,62,0.00,CLR,SCT,0.00,WeatherDisplay:10.37,2013-08-24 04:16:00,
2013-08-24 00:21:00,61.9,48.7,29.79,North,5,1.1,3.5,62,0.00,CLR,SCT,0.00,WeatherDisplay:10.37,2013-08-24 04:21:00,
2013-08-24 00:26:00,61.9,48.7,29.79,North,5,3.2,4.6,62,0.00,CLR,SCT,0.00,WeatherDisplay:10.37,2013-08-24 04:26:00,
2013-08-24 00:31:00,61.7,48.5,29.79,North,355,1.6,3.5,62,0.00,CLR,SCT,0.00,WeatherDisplay:10.37,2013-08-24 04:31:00,
2013-08-24 00:36:00,61.6,48.4,29.80,North,360,2.6,5.0,62,0.00,CLR,SCT,0.00,WeatherDisplay:10.37,2013-08-24 04:36:00,
2013-08-24 00:41:00,61.5,48.4,29.80,North,5,2.3,4.6,62,0.00,CLR,SCT,0.00,WeatherDisplay:10.37,2013-08-24 04:41:00,
2013-08-24 00:46:00,61.4,48.3,29.80,North,350,2.4,5.8,62,0.00,CLR,SCT,0.00,WeatherDisplay:10.37,2013-08-24 04:46:00,
2013-08-24 00:51:00,61.4,48.7,29.80,North,355,1.7,4.0,63,0.00,CLR,SCT,0.00,WeatherDisplay:10.37,2013-08-24 04:51:00,
2013-08-24 00:56:00,61.4,48.7,29.80,North,5,2.9,4.6,63,0.00,CLR,SCT,0.00,WeatherDisplay:10.37,2013-08-24 04:56:00,
2013-08-24 01:01:00,61.3,48.6,29.80,North,355,1.5,3.5,63,0.00,CLR,SCT,0.00,WeatherDisplay:10.37,2013-08-24 05:01:00,
2013-08-24 01:06:00,61.2,48.5,29.81,North,5,2.4,4.6,63,0.00,CLR,SCT,0.00,WeatherDisplay:10.37,2013-08-24 05:06:00,
2013-08-24 01:11:00,61.2,48.9,29.81,North,360,1.9,3.5,64,0.00,CLR,SCT,0.00,WeatherDisplay:10.37,2013-08-24 05:11:00,
2013-08-24 01:16:00,61.0,49.1,29.81,North,5,2.0,2.3,65,0.00,CLR,SCT,0.00,WeatherDisplay:10.37,2013-08-24 05:16:00,
2013-08-24 01:21:00,61.0,48.7,29.81,NNE,33,1.8,4.6,64,0.00,CLR,SCT,0.00,WeatherDisplay:10.37,2013-08-24 05:21:00,
2013-08-24 01:26:00,60.9,49.1,29.81,NE,34,1.0,3.5,65,0.00,CLR,SCT,0.00,WeatherDisplay:10.37,2013-08-24 05:26:00,
2013-08-24 01:31:00,60.7,48.9,29.81,NNE,15,2.1,3.5,65,0.00,CLR,SCT,0.00,WeatherDisplay:10.37,2013-08-24 05:31:00,
2013-08-24 01:36:00,60.6,49.2,29.81,NNE,19,0.7,2.3,66,0.00,CLR,SCT,0.00,WeatherDisplay:10.37,2013-08-24 05:36:00,
2013-08-24 01:41:00,60.4,49.0,29.81,NNE,24,1.2,3.5,66,0.00,CLR,SCT,0.00,WeatherDisplay:10.37,2013-08-24 05:41:00,
2013-08-24 01:46:00,60.3,48.9,29.81,North,360,1.3,2.3,66,0.00,CLR,SCT,0.00,WeatherDisplay:10.37,2013-08-24 05:46:00,
2013-08-24 01:51:00,60.1,49.1,29.81,North,355,2.1,2.3,67,0.00,CLR,SCT,0.00,WeatherDisplay:10.37,2013-08-24 05:51:00,
2013-08-24 01:56:00,60.0,49.0,29.81,NNW,346,1.2,2.3,67,0.00,CLR,SCT,0.00,WeatherDisplay:10.37,2013-08-24 05:56:00,
2013-08-24 02:01:00,60.0,49.0,29.81,ENE,58,1.3,3.5,67,0.00,CLR,SCT,0.00,WeatherDisplay:10.37,2013-08-24 06:01:00,
2013-08-24 02:06:00,59.9,48.9,29.82,North,5,1.2,2.3,67,0.00,CLR,SCT,0.00,WeatherDisplay:10.37,2013-08-24 06:06:00,
2013-08-24 02:11:00,59.8,48.8,29.82,North,5,2.4,4.6,67,0.00,CLR,SCT,0.00,WeatherDisplay:10.37,2013-08-24 06:11:00,
2013-08-24 02:16:00,59.6,49.0,29.82,NNW,348,1.0,2.3,68,0.00,CLR,SCT,0.00,WeatherDisplay:10.37,2013-08-24 06:16:00,
2013-08-24 02:21:00,59.5,48.9,29.82,NNE,28,0.4,1.1,68,0.00,CLR,SCT,0.00,WeatherDisplay:10.37,2013-08-24 06:21:00,
2013-08-24 02:26:00,59.4,49.2,29.82,North,355,2.2,3.5,69,0.00,CLR,SCT,0.00,WeatherDisplay:10.37,2013-08-24 06:26:00,
2013-08-24 02:31:00,59.3,49.1,29.83,North,355,1.0,2.3,69,0.00,CLR,SCT,0.00,WeatherDisplay:10.37,2013-08-24 06:31:00,
2013-08-24 02:36:00,59.1,48.9,29.83,North,5,2.0,2.3,69,0.00,CLR,SCT,0.00,WeatherDisplay:10.37,2013-08-24 06:36:00,
2013-08-24 02:41:00,58.9,49.1,29.83,North,5,0.3,1.1,70,0.00,CLR,SCT,0.00,WeatherDisplay:10.37,2013-08-24 06:41:00,
2013-08-24 02:46:00,58.7,48.9,29.83,North,5,1.4,2.3,70,0.00,CLR,SCT,0.00,WeatherDisplay:10.37,2013-08-24 06:46:00,
2013-08-24 02:51:00,58.6,48.8,29.84,NNW,336,1.7,4.0,70,0.00,CLR,SCT,0.00,WeatherDisplay:10.37,2013-08-24 06:51:00,
2013-08-24 02:56:00,58.6,48.8,29.84,North,5,2.2,3.5,70,0.00,CLR,SCT,0.00,WeatherDisplay:10.37,2013-08-24 06:56:00,
2013-08-24 03:01:00,58.5,49.1,29.84,North,5,1.2,3.5,71,0.00,CLR,SCT,0.00,WeatherDisplay:10.37,2013-08-24 07:01:00,
2013-08-24 03:06:00,58.4,49.0,29.84,NNW,348,0.5,4.6,71,0.00,CLR,SCT,0.00,WeatherDisplay:10.37,2013-08-24 07:06:00,
2013-08-24 03:11:00,58.3,48.9,29.84,North,350,1.0,2.3,71,0.00,CLR,SCT,0.00,WeatherDisplay:10.37,2013-08-24 07:11:00,
2013-08-24 03:16:00,58.2,48.8,29.84,North,360,1.1,2.3,71,0.00,CLR,SCT,0.00,WeatherDisplay:10.37,2013-08-24 07:16:00,
2013-08-24 03:21:00,58.1,48.7,29.84,North,9,1.4,3.5,71,0.00,CLR,SCT,0.00,WeatherDisplay:10.37,2013-08-24 07:21:00,
2013-08-24 03:26:00,58.0,48.6,29.84,North,9,0.8,1.1,71,0.00,CLR,SCT,0.00,WeatherDisplay:10.37,2013-08-24 07:26:00,
2013-08-24 03:31:00,58.0,49.0,29.85,North,360,1.7,3.5,72,0.00,CLR,SCT,0.00,WeatherDisplay:10.37,2013-08-24 07:31:00,
2013-08-24 03:36:00,57.8,48.8,29.85,North,360,0.4,1.1,72,0.00,CLR,SCT,0.00,WeatherDisplay:10.37,2013-08-24 07:36:00,
2013-08-24 03:41:00,57.6,49.0,29.85,North,360,0.0,1.1,73,0.00,CLR,SCT,0.00,WeatherDisplay:10.37,2013-08-24 07:41:00,
2013-08-24 03:46:00,57.4,48.8,29.85,North,360,0.4,1.1,73,0.00,CLR,SCT,0.00,WeatherDisplay:10.37,2013-08-24 07:46:00,
2013-08-24 03:51:00,57.2,49.0,29.85,North,360,0.8,2.3,74,0.00,CLR,SCT,0.00,WeatherDisplay:10.37,2013-08-24 07:51:00,
2013-08-24 03:56:00,57.1,48.5,29.85,North,360,0.3,3.5,73,0.00,CLR,SCT,0.00,WeatherDisplay:10.37,2013-08-24 07:56:00,
2013-08-24 04:01:00,57.0,49.2,29.85,North,360,0.1,1.1,75,0.00,CLR,SCT,0.00,WeatherDisplay:10.37,2013-08-24 08:01:00,
2013-08-24 04:06:00,56.9,48.7,29.85,North,360,0.1,1.1,74,0.00,CLR,SCT,0.00,WeatherDisplay:10.37,2013-08-24 08:06:00,
2013-08-24 04:11:00,56.7,48.5,29.86,North,360,0.2,1.1,74,0.00,CLR,SCT,0.00,WeatherDisplay:10.37,2013-08-24 08:11:00,
2013-08-24 04:16:00,56.6,48.4,29.86,North,360,0.8,2.3,74,0.00,CLR,SCT,0.00,WeatherDisplay:10.37,2013-08-24 08:16:00,
2013-08-24 04:21:00,56.5,48.7,29.86,North,360,0.1,1.1,75,0.00,CLR,SCT,0.00,WeatherDisplay:10.37,2013-08-24 08:21:00,
2013-08-24 04:26:00,56.4,48.6,29.86,North,360,0.5,2.3,75,0.00,CLR,SCT,0.00,WeatherDisplay:10.37,2013-08-24 08:26:00,
2013-08-24 04:31:00,56.2,48.4,29.86,North,360,0.4,1.1,75,0.00,CLR,SCT,0.00,WeatherDisplay:10.37,2013-08-24 08:31:00,
2013-08-24 04:36:00,56.3,48.5,29.86,North,5,1.5,2.3,75,0.00,CLR,SCT,0.00,WeatherDisplay:10.37,2013-08-24 08:36:00,
2013-08-24 04:41:00,56.3,48.5,29.87,North,5,0.8,2.3,75,0.00,CLR,SCT,0.00,WeatherDisplay:10.37,2013-08-24 08:41:00,
2013-08-24 04:46:00,56.3,48.5,29.86,North,360,0.3,3.5,75,0.00,CLR,SCT,0.00,WeatherDisplay:10.37,2013-08-24 08:46:00,
2013-08-24 04:51:00,56.3,48.1,29.86,North,355,2.7,3.5,74,0.00,CLR,SCT,0.00,WeatherDisplay:10.37,2013-08-24 08:51:00,
2013-08-24 04:56:00,56.4,48.2,29.87,North,9,1.7,4.6,74,0.00,CLR,SCT,0.00,WeatherDisplay:10.37,2013-08-24 08:56:00,
2013-08-24 05:01:00,56.5,48.3,29.87,North,360,0.0,1.1,74,0.00,CLR,SCT,0.00,WeatherDisplay:10.37,2013-08-24 09:01:00,
2013-08-24 05:06:00,56.5,48.3,29.87,North,11,1.3,3.5,74,0.00,CLR,SCT,0.00,WeatherDisplay:10.37,2013-08-24 09:06:00,
2013-08-24 05:39:00,55.3,48.2,29.89,North,11,0.8,2.3,77,0.00,CLR,SCT,0.00,WeatherDisplay:10.37,2013-08-24 09:39:00,
2013-08-24 05:44:00,55.2,48.1,29.88,North,5,0.9,2.3,77,0.00,CLR,SCT,0.00,WeatherDisplay:10.37,2013-08-24 09:44:00,
2013-08-24 05:49:00,55.3,48.2,29.89,North,351,1.0,2.3,77,0.00,CLR,SCT,0.00,WeatherDisplay:10.37,2013-08-24 09:49:00,
2013-08-24 05:54:00,55.5,48.4,29.89,NNE,13,1.9,3.5,77,0.00,CLR,SCT,0.00,WeatherDisplay:10.37,2013-08-24 09:54:00,
2013-08-24 05:59:00,55.5,48.4,29.89,North,360,2.0,4.0,77,0.00,CLR,SCT,0.00,WeatherDisplay:10.37,2013-08-24 09:59:00,
2013-08-24 06:04:00,55.6,48.2,29.89,North,5,1.1,2.3,76,0.00,CLR,SCT,0.00,WeatherDisplay:10.37,2013-08-24 10:04:00,
2013-08-24 06:09:00,55.5,48.1,29.89,North,360,0.7,3.5,76,0.00,CLR,SCT,0.00,WeatherDisplay:10.37,2013-08-24 10:09:00,
2013-08-24 06:14:00,55.5,48.1,29.90,North,360,0.7,2.3,76,0.00,CLR,SCT,0.00,WeatherDisplay:10.37,2013-08-24 10:14:00,
2013-08-24 06:19:00,55.7,48.2,29.90,North,360,2.3,4.6,76,0.00,CLR,SCT,0.00,WeatherDisplay:10.37,2013-08-24 10:19:00,
2013-08-24 06:24:00,55.8,48.3,29.90,North,360,0.4,2.0,76,0.00,CLR,SCT,0.00,WeatherDisplay:10.37,2013-08-24 10:24:00,
2013-08-24 06:29:00,55.9,48.4,29.90,North,360,1.7,3.5,76,0.00,CLR,SCT,0.00,WeatherDisplay:10.37,2013-08-24 10:29:00,
2013-08-24 06:34:00,55.9,48.4,29.90,North,360,1.5,3.5,76,0.00,CLR,SCT,0.00,WeatherDisplay:10.37,2013-08-24 10:34:00,
2013-08-24 06:39:00,55.9,48.4,29.90,North,5,1.1,2.3,76,0.00,CLR,SCT,0.00,WeatherDisplay:10.37,2013-08-24 10:39:00,
2013-08-24 06:44:00,55.9,48.4,29.91,North,350,0.9,3.5,76,0.00,CLR,SCT,0.00,WeatherDisplay:10.37,2013-08-24 10:44:00,
2013-08-24 06:49:00,56.0,48.5,29.91,North,5,1.2,2.3,76,0.00,CLR,SCT,0.00,WeatherDisplay:10.37,2013-08-24 10:49:00,
2013-08-24 06:54:00,56.2,48.7,29.91,North,5,0.7,1.1,76,0.00,CLR,SCT,0.00,WeatherDisplay:10.37,2013-08-24 10:54:00,
2013-08-24 06:59:00,56.2,48.7,29.91,North,10,1.3,3.5,76,0.00,CLR,SCT,0.00,WeatherDisplay:10.37,2013-08-24 10:59:00,
2013-08-24 07:04:00,56.4,48.6,29.91,North,11,1.2,2.3,75,0.00,CLR,SCT,0.00,WeatherDisplay:10.37,2013-08-24 11:04:00,
2013-08-24 07:09:00,56.6,48.8,29.91,North,360,1.2,3.5,75,0.00,CLR,SCT,0.00,WeatherDisplay:10.37,2013-08-24 11:09:00,
2013-08-24 07:14:00,56.7,48.9,29.92,North,5,0.6,2.0,75,0.00,CLR,SCT,0.00,WeatherDisplay:10.37,2013-08-24 11:14:00,
2013-08-24 07:19:00,56.9,49.4,29.92,NNE,13,0.2,1.1,76,0.00,CLR,SCT,0.00,WeatherDisplay:10.37,2013-08-24 11:19:00,
2013-08-24 07:24:00,56.9,50.8,29.92,NNE,12,0.2,1.1,80,0.00,CLR,SCT,0.00,WeatherDisplay:10.37,2013-08-24 11:24:00,
2013-08-24 07:29:00,56.5,50.7,29.92,NNE,13,0.0,0.0,81,0.00,CLR,SCT,0.00,WeatherDisplay:10.37,2013-08-24 11:29:00,
2013-08-24 07:34:00,56.1,50.3,29.92,NNE,12,0.3,1.1,81,0.00,CLR,SCT,0.00,WeatherDisplay:10.37,2013-08-24 11:34:00,
2013-08-24 07:39:00,55.8,50.1,29.92,NNE,12,0.0,0.0,81,0.00,CLR,SCT,0.00,WeatherDisplay:10.37,2013-08-24 11:39:00,
2013-08-24 07:44:00,55.7,50.0,29.92,NNE,12,0.0,0.0,81,0.00,CLR,SCT,0.00,WeatherDisplay:10.37,2013-08-24 11:44:00,
2013-08-24 07:49:00,55.8,50.4,29.93,North,11,0.0,0.0,82,0.00,CLR,SCT,0.00,WeatherDisplay:10.37,2013-08-24 11:49:00,
2013-08-24 07:54:00,55.8,50.4,29.93,North,11,0.0,0.0,82,0.00,CLR,SCT,0.00,WeatherDisplay:10.37,2013-08-24 11:54:00,
2013-08-24 07:59:00,56.0,50.6,29.93,North,11,0.2,1.1,82,0.00,CLR,SCT,0.00,WeatherDisplay:10.37,2013-08-24 11:59:00,
2013-08-24 08:04:00,56.2,50.8,29.93,North,11,0.0,0.0,82,0.00,CLR,SCT,0.00,WeatherDisplay:10.37,2013-08-24 12:04:00,
2013-08-24 08:09:00,56.4,51.0,29.93,North,11,0.3,1.1,82,0.00,CLR,SCT,0.00,WeatherDisplay:10.37,2013-08-24 12:09:00,
2013-08-24 08:14:00,56.8,51.4,29.93,North,11,0.1,1.1,82,0.00,CLR,SCT,0.00,WeatherDisplay:10.37,2013-08-24 12:14:00,
2013-08-24 08:19:00,57.1,51.7,29.94,North,11,0.2,1.1,82,0.00,CLR,SCT,0.00,WeatherDisplay:10.37,2013-08-24 12:19:00,
2013-08-24 08:24:00,57.5,51.7,29.94,WNW,296,0.0,0.0,81,0.00,CLR,SCT,0.00,WeatherDisplay:10.37,2013-08-24 12:24:00,
2013-08-24 08:29:00,57.8,52.0,29.94,WNW,296,0.0,0.0,81,0.00,CLR,SCT,0.00,WeatherDisplay:10.37,2013-08-24 12:29:00,
2013-08-24 08:34:00,58.0,51.9,29.94,WNW,296,0.0,0.0,80,0.00,CLR,SCT,0.00,WeatherDisplay:10.37,2013-08-24 12:34:00,
2013-08-24 08:39:00,58.3,52.5,29.94,NW,309,0.0,0.0,81,0.00,CLR,SCT,0.00,WeatherDisplay:10.37,2013-08-24 12:39:00,
2013-08-24 08:44:00,58.6,53.1,29.94,NW,309,0.2,1.1,82,0.00,CLR,SCT,0.00,WeatherDisplay:10.37,2013-08-24 12:44:00,
2013-08-24 08:49:00,59.0,53.2,29.94,NW,309,0.2,1.1,81,0.00,CLR,SCT,0.00,WeatherDisplay:10.37,2013-08-24 12:49:00,
2013-08-24 08:54:00,59.6,52.0,29.94,NW,304,1.5,3.5,76,0.00,CLR,SCT,0.00,WeatherDisplay:10.37,2013-08-24 12:54:00,
2013-08-24 08:59:00,60.5,51.8,29.94,ENE,70,1.4,5.8,73,0.00,CLR,SCT,0.00,WeatherDisplay:10.37,2013-08-24 12:59:00,
2013-08-24 09:04:00,61.1,53.1,29.95,WSW,248,0.0,0.0,75,0.00,CLR,SCT,0.00,WeatherDisplay:10.37,2013-08-24 13:04:00,
2013-08-24 09:09:00,61.6,54.7,29.95,West,263,0.0,0.0,78,0.00,CLR,SCT,0.00,WeatherDisplay:10.37,2013-08-24 13:09:00,
2013-08-24 09:14:00,61.8,54.9,29.95,WSW,247,0.1,1.1,78,0.00,CLR,SCT,0.00,WeatherDisplay:10.37,2013-08-24 13:14:00,
2013-08-24 09:19:00,62.5,53.0,29.95,North,355,0.3,1.1,71,0.00,CLR,SCT,0.00,WeatherDisplay:10.37,2013-08-24 13:19:00,
2013-08-24 09:24:00,63.2,53.6,29.95,North,355,0.7,2.0,71,0.00,CLR,SCT,0.00,WeatherDisplay:10.37,2013-08-24 13:24:00,
2013-08-24 09:29:00,63.9,52.3,29.95,NW,319,2.2,4.6,66,0.00,CLR,SCT,0.00,WeatherDisplay:10.37,2013-08-24 13:29:00,
2013-08-24 09:34:00,64.7,53.9,29.95,North,350,0.0,1.1,68,0.00,CLR,SCT,0.00,WeatherDisplay:10.37,2013-08-24 13:34:00,
2013-08-24 09:39:00,65.5,53.4,29.95,SE,127,0.5,1.1,65,0.00,CLR,SCT,0.00,WeatherDisplay:10.37,2013-08-24 13:39:00,
2013-08-24 09:44:00,66.2,54.1,29.95,NW,324,1.6,4.0,65,0.00,CLR,SCT,0.00,WeatherDisplay:10.37,2013-08-24 13:44:00,
2013-08-24 09:49:00,66.5,53.1,29.95,NNE,17,0.2,1.1,62,0.00,CLR,SCT,0.00,WeatherDisplay:10.37,2013-08-24 13:49:00,
2013-08-24 09:54:00,66.8,52.9,29.95,North,5,0.7,2.3,61,0.00,CLR,SCT,0.00,WeatherDisplay:10.37,2013-08-24 13:54:00,
2013-08-24 09:59:00,67.3,52.9,29.96,NE,50,0.2,1.1,60,0.00,CLR,SCT,0.00,WeatherDisplay:10.37,2013-08-24 13:59:00,
2013-08-24 10:04:00,67.6,52.8,29.96,NE,53,0.6,2.3,59,0.00,CLR,SCT,0.00,WeatherDisplay:10.37,2013-08-24 14:04:00,
2013-08-24 10:09:00,68.0,54.0,29.96,North,355,0.2,1.1,61,0.00,CLR,SCT,0.00,WeatherDisplay:10.37,2013-08-24 14:09:00,
2013-08-24 10:14:00,68.1,52.3,29.96,NNW,340,2.1,3.5,57,0.00,CLR,SCT,0.00,WeatherDisplay:10.37,2013-08-24 14:14:00,
2013-08-24 10:19:00,68.4,52.1,29.96,NNW,342,2.6,3.5,56,0.00,CLR,SCT,0.00,WeatherDisplay:10.37,2013-08-24 14:19:00,
2013-08-24 10:24:00,68.4,53.0,29.96,North,10,2.5,6.0,58,0.00,CLR,SCT,0.00,WeatherDisplay:10.37,2013-08-24 14:24:00,
2013-08-24 10:29:00,68.4,53.0,29.96,ESE,107,0.5,2.3,58,0.00,CLR,SCT,0.00,WeatherDisplay:10.37,2013-08-24 14:29:00,
2013-08-24 10:34:00,68.8,53.9,29.96,NNE,18,0.2,2.3,59,0.00,CLR,SCT,0.00,WeatherDisplay:10.37,2013-08-24 14:34:00,
2013-08-24 10:39:00,69.1,52.7,29.95,ESE,112,1.0,2.3,56,0.00,CLR,SCT,0.00,WeatherDisplay:10.37,2013-08-24 14:39:00,
2013-08-24 10:44:00,69.2,53.8,29.95,ESE,105,0.4,1.1,58,0.00,CLR,SCT,0.00,WeatherDisplay:10.37,2013-08-24 14:44:00,
2013-08-24 10:49:00,69.5,53.6,29.95,East,80,1.3,2.3,57,0.00,CLR,SCT,0.00,WeatherDisplay:10.37,2013-08-24 14:49:00,
2013-08-24 10:54:00,69.5,53.6,29.96,East,85,0.7,2.3,57,0.00,CLR,SCT,0.00,WeatherDisplay:10.37,2013-08-24 14:54:00,
2013-08-24 10:59:00,70.2,55.2,29.96,ESE,115,1.3,6.0,59,0.00,CLR,SCT,0.00,WeatherDisplay:10.37,2013-08-24 14:59:00,
2013-08-24 11:04:00,69.7,52.3,29.96,SE,138,1.6,2.3,54,0.00,CLR,SCT,0.00,WeatherDisplay:10.37,2013-08-24 15:04:00,
2013-08-24 11:09:00,69.3,54.4,29.96,North,10,1.8,3.5,59,0.00,CLR,SCT,0.00,WeatherDisplay:10.37,2013-08-24 15:09:00,
2013-08-24 11:14:00,70.0,55.0,29.96,North,350,0.8,2.0,59,0.00,CLR,SCT,0.00,WeatherDisplay:10.37,2013-08-24 15:14:00,
2013-08-24 11:19:00,71.1,55.6,29.96,NNW,331,1.7,3.5,58,0.00,CLR,SCT,0.00,WeatherDisplay:10.37,2013-08-24 15:19:00,
2013-08-24 11:24:00,70.6,54.6,29.96,North,360,0.1,1.1,57,0.00,CLR,SCT,0.00,WeatherDisplay:10.37,2013-08-24 15:24:00,
2013-08-24 11:29:00,70.2,52.8,29.96,ENE,66,0.8,2.0,54,0.00,CLR,SCT,0.00,WeatherDisplay:10.37,2013-08-24 15:29:00,
2013-08-24 11:34:00,70.1,50.6,29.96,North,5,0.2,3.5,50,0.00,CLR,SCT,0.00,WeatherDisplay:10.37,2013-08-24 15:34:00,
2013-08-24 11:39:00,70.5,52.5,29.96,ENE,58,0.5,1.1,53,0.00,CLR,SCT,0.00,WeatherDisplay:10.37,2013-08-24 15:39:00,
2013-08-24 11:44:00,71.0,53.0,29.96,ESE,102,1.3,3.5,53,0.00,CLR,SCT,0.00,WeatherDisplay:10.37,2013-08-24 15:44:00,
2013-08-24 11:49:00,71.0,54.0,29.96,NNW,333,0.0,1.1,55,0.00,CLR,SCT,0.00,WeatherDisplay:10.37,2013-08-24 15:49:00,
2013-08-24 11:54:00,70.8,52.3,29.96,ENE,61,1.6,4.6,52,0.00,CLR,SCT,0.00,WeatherDisplay:10.37,2013-08-24 15:54:00,
2013-08-24 11:59:00,70.3,52.9,29.96,NNW,342,0.3,1.1,54,0.00,CLR,SCT,0.00,WeatherDisplay:10.37,2013-08-24 15:59:00,
2013-08-24 12:04:00,70.0,53.6,29.96,NNW,332,0.5,2.3,56,0.00,CLR,SCT,0.00,WeatherDisplay:10.37,2013-08-24 16:04:00,
2013-08-24 12:09:00,70.8,53.3,29.96,NNW,329,3.8,4.6,54,0.00,CLR,SCT,0.00,WeatherDisplay:10.37,2013-08-24 16:09:00,
2013-08-24 12:14:00,70.5,53.6,29.95,NNW,333,0.4,2.0,55,0.00,CLR,SCT,0.00,WeatherDisplay:10.37,2013-08-24 16:14:00,
2013-08-24 12:19:00,70.6,54.1,29.95,NE,44,0.4,3.5,56,0.00,CLR,SCT,0.00,WeatherDisplay:10.37,2013-08-24 16:19:00,
2013-08-24 12:24:00,72.0,56.9,29.95,NNE,22,1.5,3.5,59,0.00,CLR,SCT,0.00,WeatherDisplay:10.37,2013-08-24 16:24:00,
2013-08-24 12:29:00,72.0,52.9,29.95,North,360,0.1,1.1,51,0.00,CLR,SCT,0.00,WeatherDisplay:10.37,2013-08-24 16:29:00,
2013-08-24 12:34:00,72.1,55.5,29.95,SE,126,0.6,1.1,56,0.00,CLR,SCT,0.00,WeatherDisplay:10.37,2013-08-24 16:34:00,
2013-08-24 12:39:00,72.4,52.7,29.95,North,360,2.0,4.6,50,0.00,CLR,SCT,0.00,WeatherDisplay:10.37,2013-08-24 16:39:00,
2013-08-24 12:44:00,72.6,53.4,29.95,North,5,0.4,1.1,51,0.00,CLR,SCT,0.00,WeatherDisplay:10.37,2013-08-24 16:44:00,
2013-08-24 12:49:00,70.5,56.9,29.95,North,9,0.3,1.1,62,0.00,CLR,SCT,0.00,WeatherDisplay:10.37,2013-08-24 16:49:00,
2013-08-24 12:54:00,72.0,56.4,29.95,North,360,1.1,2.3,58,0.00,CLR,SCT,0.00,WeatherDisplay:10.37,2013-08-24 16:54:00,
2013-08-24 12:59:00,72.2,55.1,29.95,NW,319,1.0,4.0,55,0.00,CLR,SCT,0.00,WeatherDisplay:10.37,2013-08-24 16:59:00,
2013-08-24 13:04:00,71.7,55.7,29.95,SSE,151,1.0,2.3,57,0.00,CLR,SCT,0.00,WeatherDisplay:10.37,2013-08-24 17:04:00,
2013-08-24 13:09:00,72.4,54.3,29.95,NNW,327,2.8,4.6,53,0.00,CLR,SCT,0.00,WeatherDisplay:10.37,2013-08-24 17:09:00,
2013-08-24 13:14:00,72.2,54.6,29.95,NNW,346,0.5,2.3,54,0.00,CLR,SCT,0.00,WeatherDisplay:10.37,2013-08-24 17:14:00,
2013-08-24 13:19:00,71.4,52.9,29.95,NNW,346,0.6,2.3,52,0.00,CLR,SCT,0.00,WeatherDisplay:10.37,2013-08-24 17:19:00,
2013-08-24 13:24:00,71.5,55.9,29.95,NNW,346,0.2,1.1,58,0.00,CLR,SCT,0.00,WeatherDisplay:10.37,2013-08-24 17:24:00,
2013-08-24 13:29:00,71.7,56.1,29.95,North,355,1.3,3.5,58,0.00,CLR,SCT,0.00,WeatherDisplay:10.37,2013-08-24 17:29:00,
2013-08-24 13:34:00,72.8,53.6,29.95,ESE,115,1.0,2.3,51,0.00,CLR,SCT,0.00,WeatherDisplay:10.37,2013-08-24 17:34:00,
2013-08-24 13:39:00,72.9,56.3,29.95,NNE,30,1.0,2.3,56,0.00,CLR,SCT,0.00,WeatherDisplay:10.37,2013-08-24 17:39:00,
2013-08-24 13:44:00,73.2,55.0,29.95,WNW,300,1.7,3.5,53,0.00,CLR,SCT,0.00,WeatherDisplay:10.37,2013-08-24 17:44:00,
2013-08-24 13:49:00,74.0,54.2,29.95,North,360,1.6,5.8,50,0.00,CLR,SCT,0.00,WeatherDisplay:10.37,2013-08-24 17:49:00,
2013-08-24 13:54:00,74.8,55.5,29.95,North,360,0.6,2.3,51,0.00,CLR,SCT,0.00,WeatherDisplay:10.37,2013-08-24 17:54:00,
2013-08-24 13:59:00,75.1,55.2,29.95,North,355,0.0,0.0,50,0.00,CLR,SCT,0.00,WeatherDisplay:10.37,2013-08-24 17:59:00,
2013-08-24 14:04:00,74.2,54.4,29.95,NE,35,0.0,1.1,50,0.00,CLR,SCT,0.00,WeatherDisplay:10.37,2013-08-24 18:04:00,
2013-08-24 14:09:00,73.8,57.1,29.95,NE,35,0.0,1.1,56,0.00,CLR,SCT,0.00,WeatherDisplay:10.37,2013-08-24 18:09:00,
2013-08-24 14:14:00,74.7,55.4,29.95,NW,307,0.3,2.3,51,0.00,CLR,SCT,0.00,WeatherDisplay:10.37,2013-08-24 18:14:00,
2013-08-24 14:19:00,74.2,54.4,29.95,NW,307,0.0,0.0,50,0.00,CLR,SCT,0.00,WeatherDisplay:10.37,2013-08-24 18:19:00,
2013-08-24 14:24:00,75.5,56.1,29.95,NNE,31,0.4,2.3,51,0.00,CLR,SCT,0.00,WeatherDisplay:10.37,2013-08-24 18:24:00,
2013-08-24 14:29:00,75.0,55.1,29.95,NE,39,1.3,3.5,50,0.00,CLR,SCT,0.00,WeatherDisplay:10.37,2013-08-24 18:29:00,
2013-08-24 14:34:00,73.7,56.0,29.95,NE,39,0.1,1.1,54,0.00,CLR,SCT,0.00,WeatherDisplay:10.37,2013-08-24 18:34:00,
2013-08-24 14:39:00,74.1,55.3,29.95,NE,40,0.0,0.0,52,0.00,CLR,SCT,0.00,WeatherDisplay:10.37,2013-08-24 18:39:00,
2013-08-24 14:44:00,73.1,55.5,29.95,NE,40,0.6,2.3,54,0.00,CLR,SCT,0.00,WeatherDisplay:10.37,2013-08-24 18:44:00,
2013-08-24 14:49:00,73.0,55.4,29.95,NE,40,0.5,1.1,54,0.00,CLR,SCT,0.00,WeatherDisplay:10.37,2013-08-24 18:49:00,
2013-08-24 14:54:00,72.7,55.1,29.95,ENE,76,1.2,2.3,54,0.00,CLR,SCT,0.00,WeatherDisplay:10.37,2013-08-24 18:54:00,
2013-08-24 14:59:00,72.8,55.7,29.95,ENE,76,0.3,1.1,55,0.00,CLR,SCT,0.00,WeatherDisplay:10.37,2013-08-24 18:59:00,
2013-08-24 15:04:00,73.5,57.8,29.95,ENE,77,0.1,1.1,58,0.00,CLR,SCT,0.00,WeatherDisplay:10.37,2013-08-24 19:04:00,
2013-08-24 15:09:00,73.5,56.8,29.95,WNW,302,0.8,2.3,56,0.00,CLR,SCT,0.00,WeatherDisplay:10.37,2013-08-24 19:09:00,
2013-08-24 15:14:00,75.5,55.6,29.95,North,360,0.1,1.1,50,0.00,CLR,SCT,0.00,WeatherDisplay:10.37,2013-08-24 19:14:00,
2013-08-24 15:19:00,74.6,55.3,29.94,ESE,110,1.1,2.3,51,0.00,CLR,SCT,0.00,WeatherDisplay:10.37,2013-08-24 19:19:00,
2013-08-24 15:24:00,73.9,54.6,29.94,ESE,115,1.2,2.3,51,0.00,CLR,SCT,0.00,WeatherDisplay:10.37,2013-08-24 19:24:00,
2013-08-24 15:29:00,73.9,55.7,29.94,NNE,19,1.6,3.5,53,0.00,CLR,SCT,0.00,WeatherDisplay:10.37,2013-08-24 19:29:00,
2013-08-24 15:34:00,74.7,55.4,29.94,NNE,19,0.1,1.1,51,0.00,CLR,SCT,0.00,WeatherDisplay:10.37,2013-08-24 19:34:00,
2013-08-24 15:39:00,74.1,56.9,29.94,NNE,19,0.2,1.0,55,0.00,CLR,SCT,0.00,WeatherDisplay:10.37,2013-08-24 19:39:00,
2013-08-24 15:44:00,74.2,57.0,29.94,NE,42,0.6,1.1,55,0.00,CLR,SCT,0.00,WeatherDisplay:10.37,2013-08-24 19:44:00,
2013-08-24 15:49:00,73.4,55.7,29.94,NE,42,0.0,1.1,54,0.00,CLR,SCT,0.00,WeatherDisplay:10.37,2013-08-24 19:49:00,
2013-08-24 15:54:00,73.0,57.3,29.94,NE,43,0.4,2.0,58,0.00,CLR,SCT,0.00,WeatherDisplay:10.37,2013-08-24 19:54:00,
2013-08-24 15:59:00,73.4,55.7,29.94,SSE,159,0.1,1.1,54,0.00,CLR,SCT,0.00,WeatherDisplay:10.37,2013-08-24 19:59:00,
2013-08-24 16:04:00,73.3,57.1,29.94,SE,128,1.0,2.3,57,0.00,CLR,SCT,0.00,WeatherDisplay:10.37,2013-08-24 20:04:00,
2013-08-24 16:09:00,73.0,57.3,29.94,SE,128,0.3,1.1,58,0.00,CLR,SCT,0.00,WeatherDisplay:10.37,2013-08-24 20:09:00,
2013-08-24 16:14:00,72.8,57.6,29.94,SE,130,0.5,2.3,59,0.00,CLR,SCT,0.00,WeatherDisplay:10.37,2013-08-24 20:14:00,
2013-08-24 16:19:00,72.9,56.8,29.94,SE,130,0.4,1.1,57,0.00,CLR,SCT,0.00,WeatherDisplay:10.37,2013-08-24 20:19:00,
2013-08-24 16:24:00,72.8,57.6,29.94,SE,130,0.0,0.0,59,0.00,CLR,SCT,0.00,WeatherDisplay:10.37,2013-08-24 20:24:00,
2013-08-24 16:29:00,72.7,57.1,29.94,SE,130,0.7,2.3,58,0.00,CLR,SCT,0.00,WeatherDisplay:10.37,2013-08-24 20:29:00,
2013-08-24 16:34:00,72.5,56.9,29.94,SSE,151,0.0,0.0,58,0.00,CLR,SCT,0.00,WeatherDisplay:10.37,2013-08-24 20:34:00,
2013-08-24 16:39:00,72.5,57.4,29.94,SSE,150,0.1,1.1,59,0.00,CLR,SCT,0.00,WeatherDisplay:10.37,2013-08-24 20:39:00,
2013-08-24 16:44:00,72.4,58.2,29.94,SE,142,0.0,0.0,61,0.00,CLR,SCT,0.00,WeatherDisplay:10.37,2013-08-24 20:44:00,
2013-08-24 16:49:00,72.4,58.2,29.94,NNE,22,0.2,1.0,61,0.00,CLR,SCT,0.00,WeatherDisplay:10.37,2013-08-24 20:49:00,
2013-08-24 16:54:00,72.4,56.3,29.94,NNE,26,0.2,2.0,57,0.00,CLR,SCT,0.00,WeatherDisplay:10.37,2013-08-24 20:54:00,
2013-08-24 16:59:00,72.6,56.0,29.94,NNE,24,0.3,1.1,56,0.00,CLR,SCT,0.00,WeatherDisplay:10.37,2013-08-24 20:59:00,
2013-08-24 17:04:00,72.8,56.7,29.94,NNE,26,0.6,2.3,57,0.00,CLR,SCT,0.00,WeatherDisplay:10.37,2013-08-24 21:04:00,
2013-08-24 17:09:00,72.7,56.6,29.94,NE,42,0.2,1.1,57,0.00,CLR,SCT,0.00,WeatherDisplay:10.37,2013-08-24 21:09:00,
2013-08-24 17:14:00,72.6,57.4,29.94,NE,42,0.2,1.1,59,0.00,CLR,SCT,0.00,WeatherDisplay:10.37,2013-08-24 21:14:00,
2013-08-24 17:19:00,72.5,56.9,29.94,NE,42,0.2,1.1,58,0.00,CLR,SCT,0.00,WeatherDisplay:10.37,2013-08-24 21:19:00,
2013-08-24 17:24:00,72.4,56.3,29.94,NE,42,0.0,1.1,57,0.00,CLR,SCT,0.00,WeatherDisplay:10.37,2013-08-24 21:24:00,
2013-08-24 17:29:00,72.3,56.2,29.94,NE,42,0.0,0.0,57,0.00,CLR,SCT,0.00,WeatherDisplay:10.37,2013-08-24 21:29:00,
2013-08-24 17:34:00,72.2,57.5,29.94,NE,42,0.0,0.0,60,0.00,CLR,SCT,0.00,WeatherDisplay:10.37,2013-08-24 21:34:00,
2013-08-24 17:39:00,72.0,58.7,29.94,NE,42,0.0,1.1,63,0.00,CLR,SCT,0.00,WeatherDisplay:10.37,2013-08-24 21:39:00,
2013-08-24 17:44:00,71.6,57.9,29.94,NE,42,0.0,0.0,62,0.00,CLR,SCT,0.00,WeatherDisplay:10.37,2013-08-24 21:44:00,
2013-08-24 17:49:00,71.2,57.1,29.94,NE,42,0.0,0.0,61,0.00,CLR,SCT,0.00,WeatherDisplay:10.37,2013-08-24 21:49:00,
2013-08-24 17:54:00,71.1,57.0,29.94,NE,42,0.0,1.1,61,0.00,CLR,SCT,0.00,WeatherDisplay:10.37,2013-08-24 21:54:00,
2013-08-24 17:59:00,71.0,57.3,29.94,NE,42,0.0,0.0,62,0.00,CLR,SCT,0.00,WeatherDisplay:10.37,2013-08-24 21:59:00,
2013-08-24 18:04:00,71.0,55.5,29.94,NE,42,0.0,0.0,58,0.00,CLR,SCT,0.00,WeatherDisplay:10.37,2013-08-24 22:04:00,
2013-08-24 18:09:00,70.9,57.7,29.94,NE,42,0.0,0.0,63,0.00,CLR,SCT,0.00,WeatherDisplay:10.37,2013-08-24 22:09:00,
2013-08-24 18:14:00,70.7,58.4,29.95,NE,42,0.0,0.0,65,0.00,CLR,SCT,0.00,WeatherDisplay:10.37,2013-08-24 22:14:00,
2013-08-24 18:19:00,70.5,58.6,29.95,NE,42,0.0,0.0,66,0.00,CLR,SCT,0.00,WeatherDisplay:10.37,2013-08-24 22:19:00,
2013-08-24 18:24:00,70.3,58.0,29.95,NE,42,0.0,0.0,65,0.00,CLR,SCT,0.00,WeatherDisplay:10.37,2013-08-24 22:24:00,
2013-08-24 18:29:00,70.3,58.0,29.95,NE,42,0.0,0.0,65,0.00,CLR,SCT,0.00,WeatherDisplay:10.37,2013-08-24 22:29:00,
2013-08-24 18:34:00,70.2,57.9,29.95,ENE,75,0.0,0.0,65,0.00,CLR,SCT,0.00,WeatherDisplay:10.37,2013-08-24 22:34:00,
2013-08-24 18:39:00,70.1,58.6,29.95,ENE,75,0.0,0.0,67,0.00,CLR,SCT,0.00,WeatherDisplay:10.37,2013-08-24 22:39:00,
2013-08-24 18:44:00,69.7,58.7,29.95,ENE,75,0.0,0.0,68,0.00,CLR,SCT,0.00,WeatherDisplay:10.37,2013-08-24 22:44:00,
2013-08-24 18:49:00,69.4,58.0,29.95,ENE,75,0.0,0.0,67,0.00,CLR,SCT,0.00,WeatherDisplay:10.37,2013-08-24 22:49:00,
2013-08-24 18:54:00,69.0,58.8,29.95,ENE,75,0.0,0.0,70,0.00,CLR,SCT,0.00,WeatherDisplay:10.37,2013-08-24 22:54:00,
2013-08-24 18:59:00,68.6,58.8,29.94,ENE,75,0.0,0.0,71,0.00,CLR,SCT,0.00,WeatherDisplay:10.37,2013-08-24 22:59:00,
2013-08-24 19:04:00,68.3,58.5,29.94,ENE,75,0.0,0.0,71,0.00,CLR,SCT,0.00,WeatherDisplay:10.37,2013-08-24 23:04:00,
2013-08-24 19:09:00,68.0,57.8,29.95,ENE,75,0.0,0.0,70,0.00,CLR,SCT,0.00,WeatherDisplay:10.37,2013-08-24 23:09:00,
2013-08-24 19:14:00,67.7,58.0,29.95,ENE,75,0.0,0.0,71,0.00,CLR,SCT,0.00,WeatherDisplay:10.37,2013-08-24 23:14:00,
2013-08-24 19:19:00,67.4,57.7,29.96,ENE,75,0.0,0.0,71,0.00,CLR,SCT,0.00,WeatherDisplay:10.37,2013-08-24 23:19:00,
2013-08-24 19:24:00,67.1,57.4,29.96,ENE,75,0.0,0.0,71,0.00,CLR,SCT,0.00,WeatherDisplay:10.37,2013-08-24 23:24:00,
2013-08-24 19:29:00,66.8,56.7,29.96,ENE,75,0.0,0.0,70,0.00,CLR,SCT,0.00,WeatherDisplay:10.37,2013-08-24 23:29:00,
2013-08-24 19:34:00,66.5,56.8,29.96,ENE,75,0.0,0.0,71,0.00,CLR,SCT,0.00,WeatherDisplay:10.37,2013-08-24 23:34:00,
2013-08-24 19:39:00,66.3,56.2,29.96,ENE,75,0.0,0.0,70,0.00,CLR,SCT,0.00,WeatherDisplay:10.37,2013-08-24 23:39:00,
2013-08-24 19:44:00,66.1,55.6,29.96,ENE,75,0.0,0.0,69,0.00,CLR,SCT,0.00,WeatherDisplay:10.37,2013-08-24 23:44:00,
2013-08-24 19:49:00,66.0,55.5,29.96,ENE,75,0.0,0.0,69,0.00,CLR,SCT,0.00,WeatherDisplay:10.37,2013-08-24 23:49:00,
2013-08-24 19:54:00,65.9,55.4,29.97,ENE,75,0.0,0.0,69,0.00,CLR,SCT,0.00,WeatherDisplay:10.37,2013-08-24 23:54:00,
2013-08-24 19:59:00,65.8,55.3,29.97,ENE,75,0.0,0.0,69,0.00,CLR,SCT,0.00,WeatherDisplay:10.37,2013-08-24 23:59:00,
2013-08-24 20:04:00,65.7,56.0,29.97,ENE,75,0.0,0.0,71,0.00,CLR,SCT,0.00,WeatherDisplay:10.37,2013-08-25 00:04:00,
2013-08-24 20:09:00,65.6,56.3,29.97,ENE,75,0.0,0.0,72,0.00,CLR,SCT,0.00,WeatherDisplay:10.37,2013-08-25 00:09:00,
2013-08-24 20:14:00,65.3,56.4,29.97,ENE,75,0.0,0.0,73,0.00,CLR,SCT,0.00,WeatherDisplay:10.37,2013-08-25 00:14:00,
2013-08-24 20:19:00,65.1,56.6,29.97,ENE,75,0.0,0.0,74,0.00,CLR,SCT,0.00,WeatherDisplay:10.37,2013-08-25 00:19:00,
2013-08-24 20:24:00,64.8,56.7,29.98,ENE,75,0.0,0.0,75,0.00,CLR,SCT,0.00,WeatherDisplay:10.37,2013-08-25 00:24:00,
2013-08-24 20:29:00,64.6,56.9,29.98,ENE,75,0.0,0.0,76,0.00,CLR,SCT,0.00,WeatherDisplay:10.37,2013-08-25 00:29:00,
2013-08-24 20:34:00,64.4,56.7,29.98,ENE,75,0.0,0.0,76,0.00,CLR,SCT,0.00,WeatherDisplay:10.37,2013-08-25 00:34:00,
2013-08-24 20:39:00,64.2,56.8,29.98,ENE,75,0.0,0.0,77,0.00,CLR,SCT,0.00,WeatherDisplay:10.37,2013-08-25 00:39:00,
2013-08-24 20:44:00,64.1,57.1,29.98,ENE,75,0.0,0.0,78,0.00,CLR,SCT,0.00,WeatherDisplay:10.37,2013-08-25 00:44:00,
2013-08-24 20:49:00,63.9,56.9,29.98,ENE,75,0.0,0.0,78,0.00,CLR,SCT,0.00,WeatherDisplay:10.37,2013-08-25 00:49:00,
2013-08-24 20:54:00,63.7,57.1,29.98,ENE,75,0.0,0.0,79,0.00,CLR,SCT,0.00,WeatherDisplay:10.37,2013-08-25 00:54:00,
2013-08-24 20:59:00,63.6,57.3,29.99,ENE,75,0.0,0.0,80,0.00,CLR,SCT,0.00,WeatherDisplay:10.37,2013-08-25 00:59:00,
2013-08-24 21:04:00,63.5,57.2,29.99,ENE,75,0.0,0.0,80,0.00,CLR,SCT,0.00,WeatherDisplay:10.37,2013-08-25 01:04:00,
2013-08-24 21:09:00,63.3,57.4,29.99,ENE,75,0.0,0.0,81,0.00,CLR,SCT,0.00,WeatherDisplay:10.37,2013-08-25 01:09:00,
2013-08-24 21:14:00,63.2,57.3,29.99,ENE,75,0.0,0.0,81,0.00,CLR,SCT,0.00,WeatherDisplay:10.37,2013-08-25 01:14:00,
2013-08-24 21:19:00,63.0,57.1,29.99,ENE,75,0.0,0.0,81,0.00,CLR,SCT,0.00,WeatherDisplay:10.37,2013-08-25 01:19:00,
2013-08-24 21:24:00,62.9,57.3,29.99,ENE,75,0.0,0.0,82,0.00,CLR,SCT,0.00,WeatherDisplay:10.37,2013-08-25 01:24:00,
2013-08-24 21:29:00,62.7,57.5,29.99,ENE,75,0.0,0.0,83,0.00,CLR,SCT,0.00,WeatherDisplay:10.37,2013-08-25 01:29:00,
2013-08-24 21:34:00,62.5,57.3,29.99,ENE,75,0.0,0.0,83,0.00,CLR,SCT,0.00,WeatherDisplay:10.37,2013-08-25 01:34:00,
2013-08-24 21:39:00,62.2,57.3,29.99,ENE,75,0.0,0.0,84,0.00,CLR,SCT,0.00,WeatherDisplay:10.37,2013-08-25 01:39:00,
2013-08-24 21:44:00,61.8,56.2,29.99,ENE,75,0.0,0.0,82,0.00,CLR,SCT,0.00,WeatherDisplay:10.37,2013-08-25 01:44:00,
2013-08-24 21:49:00,61.4,55.9,29.99,ENE,75,0.0,0.0,82,0.00,CLR,SCT,0.00,WeatherDisplay:10.37,2013-08-25 01:49:00,
2013-08-24 21:54:00,61.3,56.1,29.99,ENE,75,0.0,0.0,83,0.00,CLR,SCT,0.00,WeatherDisplay:10.37,2013-08-25 01:54:00,
2013-08-24 21:59:00,61.2,56.0,30.00,ENE,75,0.0,0.0,83,0.00,CLR,SCT,0.00,WeatherDisplay:10.37,2013-08-25 01:59:00,
2013-08-24 22:04:00,61.2,55.3,30.00,ENE,75,0.0,0.0,81,0.00,CLR,SCT,0.00,WeatherDisplay:10.37,2013-08-25 02:04:00,
2013-08-24 22:09:00,61.3,55.4,30.00,ENE,75,0.0,0.0,81,0.00,CLR,SCT,0.00,WeatherDisplay:10.37,2013-08-25 02:09:00,
2013-08-24 22:14:00,61.3,55.1,30.00,ENE,75,0.0,0.0,80,0.00,CLR,SCT,0.00,WeatherDisplay:10.37,2013-08-25 02:14:00,
2013-08-24 22:19:00,61.3,55.4,30.00,ENE,75,0.0,0.0,81,0.00,CLR,SCT,0.00,WeatherDisplay:10.37,2013-08-25 02:19:00,
2013-08-24 22:24:00,61.2,56.0,30.00,ENE,75,0.0,0.0,83,0.00,CLR,SCT,0.00,WeatherDisplay:10.37,2013-08-25 02:24:00,
2013-08-24 22:29:00,61.0,55.8,30.00,ENE,75,0.0,0.0,83,0.00,CLR,SCT,0.00,WeatherDisplay:10.37,2013-08-25 02:29:00,
2013-08-24 22:34:00,60.8,55.9,30.00,ENE,75,0.0,0.0,84,0.00,CLR,SCT,0.00,WeatherDisplay:10.37,2013-08-25 02:34:00,
2013-08-24 22:39:00,60.5,56.0,30.00,ENE,75,0.0,0.0,85,0.00,CLR,SCT,0.00,WeatherDisplay:10.37,2013-08-25 02:39:00,
2013-08-24 22:44:00,60.1,56.2,30.00,ENE,75,0.0,0.0,87,0.00,CLR,SCT,0.00,WeatherDisplay:10.37,2013-08-25 02:44:00,
2013-08-24 22:49:00,59.8,56.2,30.00,ENE,75,0.0,0.0,88,0.00,CLR,SCT,0.00,WeatherDisplay:10.37,2013-08-25 02:49:00,
2013-08-24 22:54:00,59.6,56.0,30.00,ENE,75,0.0,0.0,88,0.00,CLR,SCT,0.00,WeatherDisplay:10.37,2013-08-25 02:54:00,
2013-08-24 22:59:00,59.5,55.9,30.00,ENE,75,0.0,0.0,88,0.00,CLR,SCT,0.00,WeatherDisplay:10.37,2013-08-25 02:59:00,
2013-08-24 23:04:00,59.5,55.9,30.00,ENE,75,0.0,0.0,88,0.00,CLR,SCT,0.00,WeatherDisplay:10.37,2013-08-25 03:04:00,
2013-08-24 23:09:00,59.5,56.3,30.00,ENE,75,0.0,0.0,89,0.00,CLR,SCT,0.00,WeatherDisplay:10.37,2013-08-25 03:09:00,
2013-08-24 23:14:00,59.5,56.3,30.00,ENE,75,0.0,0.0,89,0.00,CLR,SCT,0.00,WeatherDisplay:10.37,2013-08-25 03:14:00,
2013-08-24 23:19:00,59.5,56.3,30.00,ENE,75,0.0,0.0,89,0.00,CLR,SCT,0.00,WeatherDisplay:10.37,2013-08-25 03:19:00,
2013-08-24 23:24:00,59.5,56.6,30.00,ENE,75,0.0,0.0,90,0.00,CLR,SCT,0.00,WeatherDisplay:10.37,2013-08-25 03:24:00,
2013-08-24 23:29:00,59.4,56.5,30.00,ENE,75,0.0,0.0,90,0.00,CLR,SCT,0.00,WeatherDisplay:10.37,2013-08-25 03:29:00,
2013-08-24 23:34:00,59.3,56.4,30.00,ENE,75,0.0,0.0,90,0.00,CLR,SCT,0.00,WeatherDisplay:10.37,2013-08-25 03:34:00,
2013-08-24 23:39:00,59.2,56.3,30.01,ENE,75,0.0,0.0,90,0.00,CLR,SCT,0.00,WeatherDisplay:10.37,2013-08-25 03:39:00,
2013-08-24 23:44:00,59.1,56.2,30.01,ENE,75,0.0,0.0,90,0.00,CLR,SCT,0.00,WeatherDisplay:10.37,2013-08-25 03:44:00,
2013-08-24 23:49:00,59.0,56.4,30.01,ENE,75,0.0,0.0,91,0.00,CLR,SCT,0.00,WeatherDisplay:10.37,2013-08-25 03:49:00,
2013-08-24 23:54:00,58.9,56.3,30.01,ENE,75,0.0,0.0,91,0.00,CLR,SCT,0.00,WeatherDisplay:10.37,2013-08-25 03:54:00,
2013-08-24 23:59:00,58.8,56.2,30.01,ENE,75,0.0,0.0,91,0.00,CLR,SCT,0.00,WeatherDisplay:10.37,2013-08-25 03:59:00,